メインページ
METAR-TAF:

METAR-TAF

空港 :

マレ, Hulhule Island, モルディブ

イブラヒム・ナシル国際空港

緯度: 04-12N, 経度: 073-32E, 海抜: 2m

現時点の気象観測

当レポートは1時間14分前の00:00(UTC)に作成
西の風 13kt
気温 27°C
湿度 94%
気圧 1008 hPa
視程10km以上
高度1700ftの雲は散在している
高度1800ftの雲はほとんどない, 積乱雲.
高度26000ftの千切れ雲あり

METAR: VRMM 230000Z 28013KT 9999 SCT017 FEW018CB BKN260 27/26 Q1008 CB SW,W TEMPO 4000 SHRA

時間: 06:14 (01:14 UTC)

予報

当レポートは2時間14分前の23:00(UTC)に作成
予報は23日の 00時(UTC)から 24日の 06時(UTC)まで有効
西の風 15kt
視程10km以上
高度1700ftの雲はほとんどない, 塔状積雲.
23日の 00時(UTC)から 23日の 06時(UTC)まで一時的に
西の風 18kt、最大35ktの突風を伴う
視程: 4000m
高度1600ftの雲は散在している
高度1700ftの雲はほとんどない, 積乱雲.
激しい雷雨, 雨

TAF: VRMM 222300Z 2300/2406 27015KT 9999 FEW017TCU TEMPO 2300/2306 27018G35KT 4000 TSRA SCT016 FEW017CB

4,000以上の空港の気象観測と天気予報(METAR報とTAF報)

利用可能な観測所は地図上に黄色い丸と赤い丸で示す。

丸の上にカーソルを重ねると観測所名を参照できる。

次にクリックすると気象観測と天気予報を参照できる。

マップの切り替え:黒色「×」印の緑ボタンをクリックして拡大、「-」印の緑ボタンをクリックして縮小、緑色の三角印をクリックして隣りの地図に切り替え


METAR-TAF: